Terminal Aerodrome Forecast
Issued by NWS

Home | Current Version | Previous Version | Text Only | Print | Product List | Glossary On
Versions: 1 2 3 4 5 6 7 8 9 10 11 12 13 14 15 16 17 18
000
FTUS45 KRIW 261806 AAA
TAFCPR
TAF AMD
KCPR 261806Z 2618/2718 17012KT P6SM -RA SCT030 OVC060
     FM262300 03016G26KT 5SM -RA VCTS OVC025CB
     FM270200 01009KT P6SM VCSH BKN030
     FM271200 32013G23KT P6SM SCT060 BKN150=

USA.gov is the U.S. government's official web portal to all federal, state and local government web resources and services.